Time;durP1;ratioP1;P1;durP2;ratioP2;P2;SDS_P1;SDS_P2;PMS_P1;PMS_P2;Temp;Humidity;BMP_temperature;BMP_pressure;BME280_temperature;BME280_humidity;BME280_pressure;Samples;Min_cycle;Max_cycle;Signal;HPM_P1;HPM_P2
2023/08/23 00:00:14;;;;;;;9.43;6.50;;;21.10;54.70;;;;;;5054296;28;20167;-86
2023/08/23 00:02:40;;;;;;;9.40;6.53;;;21.20;54.60;;;;;;5054074;28;20177;-87
2023/08/23 00:05:06;;;;;;;9.43;7.50;;;21.20;53.70;;;;;;5054985;28;20176;-86
2023/08/23 00:07:32;;;;;;;12.93;6.83;;;21.20;50.70;;;;;;5056383;28;20185;-86
2023/08/23 00:09:59;;;;;;;9.73;6.63;;;21.30;49.70;;;;;;5055785;28;20169;-88
2023/08/23 00:12:25;;;;;;;10.00;7.03;;;21.30;50.10;;;;;;5057130;28;20211;-86
2023/08/23 00:14:51;;;;;;;9.07;7.27;;;21.30;49.10;;;;;;5056615;28;20181;-87
2023/08/23 00:17:17;;;;;;;9.53;7.17;;;21.30;47.70;;;;;;5054712;28;20197;-86
2023/08/23 00:19:52;;;;;;;10.83;7.27;;;21.30;46.80;;;;;;5057295;28;20252;-87
2023/08/23 00:22:18;;;;;;;11.23;7.60;;;21.30;47.50;;;;;;5058160;28;20224;-87
2023/08/23 00:24:44;;;;;;;9.30;7.00;;;21.20;50.20;;;;;;5052782;28;20176;-86
2023/08/23 00:27:09;;;;;;;10.33;7.23;;;21.20;50.50;;;;;;5054489;28;20173;-87
2023/08/23 00:29:37;;;;;;;10.90;7.30;;;21.10;53.00;;;;;;5052700;28;20264;-87
2023/08/23 00:32:04;;;;;;;9.70;7.50;;;21.00;55.00;;;;;;5052457;28;20237;-88
2023/08/23 00:34:32;;;;;;;9.90;7.53;;;21.10;55.90;;;;;;5053159;28;20177;-86
2023/08/23 00:36:58;;;;;;;9.70;7.17;;;21.30;52.20;;;;;;5052519;28;20212;-88
2023/08/23 00:39:24;;;;;;;8.40;6.70;;;21.40;47.40;;;;;;5055709;28;20157;-87
2023/08/23 00:41:49;;;;;;;12.80;7.93;;;21.40;45.90;;;;;;5054222;28;20170;-87
2023/08/23 00:44:17;;;;;;;9.40;7.47;;;21.40;46.30;;;;;;5056443;28;20186;-88
2023/08/23 00:46:43;;;;;;;12.87;7.10;;;21.40;43.60;;;;;;5046944;28;20190;-86
2023/08/23 00:49:09;;;;;;;10.07;7.50;;;21.50;43.90;;;;;;5055578;28;20228;-87
2023/08/23 00:51:35;;;;;;;10.80;7.53;;;21.40;44.20;;;;;;5058010;28;20215;-87
2023/08/23 00:54:02;;;;;;;10.60;7.03;;;21.40;46.70;;;;;;5059435;28;20171;-87
2023/08/23 00:56:28;;;;;;;8.83;6.50;;;21.30;47.50;;;;;;5053350;28;20181;-83
2023/08/23 00:58:54;;;;;;;9.80;7.47;;;21.30;46.90;;;;;;5053787;28;20161;-84
2023/08/23 01:01:20;;;;;;;13.80;7.80;;;21.30;46.90;;;;;;5052635;28;20261;-88
2023/08/23 01:03:49;;;;;;;10.17;8.17;;;21.40;44.20;;;;;;5051679;28;20639;-87
2023/08/23 01:07:00;;;;;;;10.13;7.43;;;21.30;44.00;;;;;;5055498;28;20169;-88
2023/08/23 01:10:03;;;;;;;13.57;7.53;;;21.20;46.20;;;;;;5039780;28;20737;-88
2023/08/23 01:12:42;;;;;;;10.53;7.37;;;21.10;48.90;;;;;;5056298;28;20210;-87
2023/08/23 01:15:11;;;;;;;14.03;7.87;;;21.00;51.30;;;;;;5058690;28;20196;-87
2023/08/23 01:17:42;;;;;;;10.83;7.63;;;21.10;52.00;;;;;;5057081;28;20173;-85
2023/08/23 01:20:12;;;;;;;12.67;8.40;;;21.10;50.60;;;;;;5053561;28;20181;-87
2023/08/23 01:22:41;;;;;;;13.53;8.43;;;21.10;50.60;;;;;;5056962;28;20165;-87
2023/08/23 01:25:08;;;;;;;11.77;7.77;;;21.00;52.10;;;;;;5063020;28;20564;-88
2023/08/23 01:27:34;;;;;;;10.27;7.53;;;21.00;54.50;;;;;;5063492;28;20279;-85
2023/08/23 01:30:00;;;;;;;11.70;8.00;;;21.10;54.90;;;;;;5063558;28;20175;-85
2023/08/23 01:32:43;;;;;;;11.47;7.57;;;21.10;53.90;;;;;;5057711;28;20217;-86
2023/08/23 01:35:22;;;;;;;11.03;8.50;;;21.10;55.10;;;;;;5055462;28;20638;-87
2023/08/23 01:37:54;;;;;;;12.13;8.03;;;21.00;55.30;;;;;;5056651;28;20169;-86
2023/08/23 01:40:21;;;;;;;12.13;8.37;;;20.90;57.70;;;;;;5054393;28;20178;-84
2023/08/23 01:42:50;;;;;;;13.30;8.30;;;21.00;59.00;;;;;;5054307;28;20170;-86
2023/08/23 01:45:16;;;;;;;14.80;8.80;;;21.10;56.40;;;;;;5054575;28;20193;-83
2023/08/23 01:47:42;;;;;;;12.77;8.23;;;21.00;55.30;;;;;;5054894;28;20637;-84
2023/08/23 01:50:12;;;;;;;14.67;8.30;;;20.80;58.10;;;;;;5055544;28;20250;-87
2023/08/23 01:52:38;;;;;;;12.07;8.20;;;20.80;61.20;;;;;;5056084;28;20200;-84
2023/08/23 01:55:04;;;;;;;10.77;7.70;;;20.90;58.40;;;;;;5054361;28;20181;-89
2023/08/23 01:57:29;;;;;;;11.90;8.17;;;21.00;54.70;;;;;;5054820;28;20691;-85
2023/08/23 01:59:56;;;;;;;15.80;8.10;;;21.00;52.40;;;;;;5065145;28;20203;-84
2023/08/23 02:02:22;;;;;;;12.33;8.50;;;21.00;53.60;;;;;;5060147;28;20648;-86
2023/08/23 02:04:48;;;;;;;12.83;8.03;;;21.00;53.70;;;;;;5061719;28;20177;-87
2023/08/23 02:07:14;;;;;;;12.70;8.27;;;21.00;54.30;;;;;;5055486;28;20594;-87
2023/08/23 02:09:40;;;;;;;10.60;7.83;;;21.10;52.30;;;;;;5054587;28;20261;-87
2023/08/23 02:12:07;;;;;;;9.77;8.07;;;21.10;50.30;;;;;;5053954;28;20209;-86
2023/08/23 02:14:32;;;;;;;11.53;7.43;;;21.20;48.10;;;;;;5054165;28;20218;-86
2023/08/23 02:16:58;;;;;;;12.43;7.13;;;21.10;51.10;;;;;;5054866;28;20177;-86
2023/08/23 02:19:24;;;;;;;9.37;6.87;;;21.10;52.30;;;;;;5055363;28;20165;-87
2023/08/23 02:21:50;;;;;;;10.53;7.27;;;21.20;49.20;;;;;;5053075;28;20170;-87
2023/08/23 02:24:15;;;;;;;10.47;6.93;;;21.20;50.10;;;;;;5052879;28;20186;-86
2023/08/23 02:26:41;;;;;;;8.43;6.80;;;21.30;47.80;;;;;;5054172;28;20174;-86
2023/08/23 02:29:07;;;;;;;14.27;6.83;;;21.30;46.70;;;;;;5053138;28;20692;-84
2023/08/23 02:31:32;;;;;;;10.90;6.87;;;21.30;45.70;;;;;;5054015;28;20217;-83
2023/08/23 02:33:58;;;;;;;10.53;6.20;;;21.20;46.40;;;;;;5053882;28;20529;-84
2023/08/23 02:36:25;;;;;;;8.20;6.37;;;21.20;48.50;;;;;;5053760;28;20188;-84
2023/08/23 02:38:51;;;;;;;9.80;6.33;;;21.20;49.10;;;;;;5053391;28;20617;-83
2023/08/23 02:41:17;;;;;;;8.00;6.40;;;21.10;49.30;;;;;;5053824;28;20198;-83
2023/08/23 02:43:43;;;;;;;9.57;6.27;;;20.90;54.00;;;;;;5054892;28;20599;-84
2023/08/23 02:46:08;;;;;;;9.07;6.27;;;20.90;55.90;;;;;;5054344;28;20639;-83
2023/08/23 02:48:34;;;;;;;9.70;5.90;;;21.10;53.00;;;;;;5053009;28;20173;-84
2023/08/23 02:51:00;;;;;;;11.50;6.60;;;21.20;49.30;;;;;;5053067;28;20243;-83
2023/08/23 02:53:26;;;;;;;12.00;6.53;;;21.30;48.40;;;;;;5052623;28;20223;-84
2023/08/23 02:55:52;;;;;;;9.70;6.47;;;21.30;46.40;;;;;;5053799;28;20177;-84
2023/08/23 02:58:17;;;;;;;10.17;6.00;;;21.40;44.60;;;;;;5051715;28;20174;-84
2023/08/23 03:00:43;;;;;;;9.07;5.10;;;21.40;43.10;;;;;;5052388;28;20178;-84
2023/08/23 03:03:08;;;;;;;9.83;5.53;;;21.40;41.20;;;;;;5053680;28;20548;-85
2023/08/23 03:05:34;;;;;;;8.17;5.47;;;21.30;40.30;;;;;;5054190;28;20219;-84
2023/08/23 03:08:00;;;;;;;7.47;5.60;;;21.20;42.70;;;;;;5052723;28;20182;-88
2023/08/23 03:10:25;;;;;;;14.13;5.93;;;21.20;41.10;;;;;;5053188;28;20662;-85
2023/08/23 03:12:51;;;;;;;8.70;5.50;;;21.30;39.90;;;;;;5052502;28;20514;-85
2023/08/23 03:15:17;;;;;;;11.40;5.67;;;21.10;40.50;;;;;;5053036;28;20173;-84
2023/08/23 03:17:42;;;;;;;9.33;5.80;;;21.10;42.40;;;;;;5052061;28;20179;-86
2023/08/23 03:20:08;;;;;;;12.57;6.67;;;21.10;41.10;;;;;;5052344;28;20175;-85
2023/08/23 03:22:34;;;;;;;8.03;5.97;;;21.10;37.40;;;;;;5052855;28;20174;-86
2023/08/23 03:25:00;;;;;;;9.17;5.70;;;21.00;41.00;;;;;;5052473;28;20180;-87
2023/08/23 03:27:25;;;;;;;10.43;5.50;;;20.80;46.70;;;;;;5052759;28;20180;-85
2023/08/23 03:29:51;;;;;;;10.30;5.70;;;20.70;49.90;;;;;;5052454;28;20522;-84
2023/08/23 03:32:19;;;;;;;11.77;6.53;;;20.80;47.20;;;;;;5052093;28;20280;-84
2023/08/23 03:34:45;;;;;;;9.60;6.00;;;20.70;48.90;;;;;;5052148;28;20174;-84
2023/08/23 03:37:10;;;;;;;13.90;6.03;;;20.60;51.60;;;;;;5051075;28;20263;-84
2023/08/23 03:39:37;;;;;;;17.20;6.60;;;20.50;54.80;;;;;;5051945;28;20669;-85
2023/08/23 03:42:04;;;;;;;12.17;6.07;;;20.60;52.80;;;;;;5052180;28;20324;-85
2023/08/23 03:44:29;;;;;;;11.73;6.43;;;20.50;53.80;;;;;;5051478;28;20208;-86
2023/08/23 03:46:58;;;;;;;13.73;6.47;;;20.40;56.00;;;;;;5051145;28;20200;-86
2023/08/23 03:49:24;;;;;;;11.87;6.83;;;20.40;56.50;;;;;;5051918;28;20175;-84
2023/08/23 03:51:50;;;;;;;9.57;5.93;;;20.50;54.80;;;;;;5052879;28;20238;-84
2023/08/23 03:54:18;;;;;;;13.83;6.23;;;20.50;55.70;;;;;;5052254;28;20675;-84
2023/08/23 03:56:44;;;;;;;12.53;6.20;;;20.40;55.90;;;;;;5051973;28;20173;-84
2023/08/23 03:59:10;;;;;;;9.33;6.10;;;20.40;58.10;;;;;;5053223;28;20168;-85
2023/08/23 04:01:36;;;;;;;10.60;5.90;;;20.50;56.00;;;;;;5052204;28;20621;-86
2023/08/23 04:04:02;;;;;;;11.07;6.70;;;20.50;54.90;;;;;;5051927;28;20173;-85
2023/08/23 04:06:28;;;;;;;9.67;6.63;;;20.40;56.70;;;;;;5051711;28;20231;-85
2023/08/23 04:08:54;;;;;;;12.93;6.90;;;20.30;58.70;;;;;;5053883;28;20248;-85
2023/08/23 04:11:19;;;;;;;9.57;6.57;;;20.40;59.20;;;;;;5050696;28;20698;-85
2023/08/23 04:13:45;;;;;;;9.73;6.40;;;20.30;59.00;;;;;;5051515;28;20613;-84
2023/08/23 04:16:12;;;;;;;8.93;6.60;;;20.30;60.40;;;;;;5051389;28;20227;-84
2023/08/23 04:18:38;;;;;;;11.23;6.27;;;20.40;58.30;;;;;;5051410;28;20172;-84
2023/08/23 04:21:03;;;;;;;11.77;6.80;;;20.40;58.00;;;;;;5050362;28;20185;-84
2023/08/23 04:23:29;;;;;;;11.80;6.40;;;20.30;58.30;;;;;;5050318;28;20229;-84
2023/08/23 04:25:55;;;;;;;10.27;6.83;;;20.30;58.80;;;;;;5050508;28;20621;-84
2023/08/23 04:28:21;;;;;;;11.00;6.93;;;20.40;57.00;;;;;;5051472;28;20177;-85
2023/08/23 04:30:47;;;;;;;11.83;6.97;;;20.50;53.90;;;;;;5050844;28;20739;-84
2023/08/23 04:33:13;;;;;;;9.00;6.67;;;20.40;54.50;;;;;;5050735;28;20182;-85
2023/08/23 04:35:38;;;;;;;12.97;7.37;;;20.50;53.80;;;;;;5052500;28;20176;-85
2023/08/23 04:38:09;;;;;;;12.33;7.27;;;20.30;54.50;;;;;;5051158;28;20508;-85
2023/08/23 04:40:36;;;;;;;13.97;7.17;;;20.30;57.20;;;;;;5051304;28;20213;-85
2023/08/23 04:43:01;;;;;;;12.50;7.00;;;20.20;57.10;;;;;;5049868;28;20223;-85
2023/08/23 04:45:27;;;;;;;14.50;7.53;;;20.10;58.60;;;;;;5050232;28;20169;-85
2023/08/23 04:47:53;;;;;;;9.13;7.43;;;20.10;58.70;;;;;;5052906;28;20256;-84
2023/08/23 04:50:20;;;;;;;17.70;8.13;;;20.10;59.40;;;;;;5054895;28;20647;-84
2023/08/23 04:52:45;;;;;;;17.93;7.57;;;20.00;61.20;;;;;;5054670;28;20183;-84
2023/08/23 04:55:11;;;;;;;10.20;6.70;;;20.10;61.40;;;;;;5056183;28;20222;-84
2023/08/23 04:57:37;;;;;;;12.20;7.50;;;20.10;59.30;;;;;;5055177;28;20172;-84
2023/08/23 05:00:06;;;;;;;14.90;8.13;;;20.20;56.30;;;;;;5056347;28;20243;-84
2023/08/23 05:02:32;;;;;;;12.27;7.73;;;20.20;54.40;;;;;;5054974;28;20644;-84
2023/08/23 05:04:58;;;;;;;17.37;7.50;;;20.20;52.20;;;;;;5057513;28;20259;-84
2023/08/23 05:07:23;;;;;;;11.27;7.80;;;20.20;52.30;;;;;;5054486;28;20207;-83
2023/08/23 05:09:49;;;;;;;15.27;7.17;;;20.10;52.40;;;;;;5055508;28;20181;-83
2023/08/23 05:12:15;;;;;;;14.63;7.57;;;20.00;54.90;;;;;;5055034;28;20202;-85
2023/08/23 05:14:40;;;;;;;15.47;7.13;;;19.90;56.50;;;;;;5054328;28;20211;-85
2023/08/23 05:17:06;;;;;;;14.53;6.73;;;19.80;57.90;;;;;;5054656;28;20544;-85
2023/08/23 05:19:32;;;;;;;13.20;7.00;;;19.80;58.70;;;;;;5054523;28;20546;-85
2023/08/23 05:21:57;;;;;;;15.83;7.53;;;19.70;61.00;;;;;;5054225;28;20177;-85
2023/08/23 05:24:24;;;;;;;12.77;7.33;;;19.70;63.10;;;;;;5054538;28;20535;-84
2023/08/23 05:26:50;;;;;;;13.80;7.27;;;19.60;66.80;;;;;;5055520;28;20165;-85
2023/08/23 05:29:16;;;;;;;12.77;7.13;;;19.70;65.80;;;;;;5054437;28;20610;-84
2023/08/23 05:31:41;;;;;;;12.60;6.90;;;19.90;58.90;;;;;;5053812;28;20245;-85
2023/08/23 05:34:07;;;;;;;12.60;8.57;;;20.00;53.50;;;;;;5062531;28;20185;-85
2023/08/23 05:36:33;;;;;;;18.10;9.13;;;20.10;52.50;;;;;;5070347;28;20179;-83
2023/08/23 05:39:02;;;;;;;16.33;10.03;;;20.20;49.30;;;;;;5065465;28;20199;-84
2023/08/23 05:41:28;;;;;;;14.17;10.23;;;20.30;46.10;;;;;;5053965;28;20186;-86
2023/08/23 05:43:54;;;;;;;15.60;9.57;;;20.20;44.80;;;;;;5060578;28;20259;-85
2023/08/23 05:46:20;;;;;;;15.07;9.83;;;20.20;47.20;;;;;;5055735;28;20214;-88
2023/08/23 05:48:48;;;;;;;16.70;10.33;;;20.00;52.80;;;;;;5055170;28;20169;-85
2023/08/23 05:51:14;;;;;;;13.07;9.63;;;20.00;58.10;;;;;;5054170;28;20215;-85
2023/08/23 05:53:40;;;;;;;13.20;9.77;;;20.00;58.90;;;;;;5055410;28;20218;-85
2023/08/23 05:56:06;;;;;;;11.73;9.97;;;20.10;58.70;;;;;;5055365;28;20169;-87
2023/08/23 05:58:33;;;;;;;15.13;8.90;;;20.10;56.00;;;;;;5052953;28;20194;-85
2023/08/23 06:01:00;;;;;;;11.03;9.23;;;20.10;56.40;;;;;;5053852;28;20272;-85
2023/08/23 06:03:26;;;;;;;14.30;9.30;;;20.10;53.40;;;;;;5052845;28;20188;-84
2023/08/23 06:05:55;;;;;;;12.73;8.67;;;20.00;54.80;;;;;;5053197;28;20169;-85
2023/08/23 06:08:21;;;;;;;15.77;8.97;;;20.10;55.20;;;;;;5054914;28;20306;-87
2023/08/23 06:10:47;;;;;;;16.53;8.77;;;20.20;52.30;;;;;;5053442;28;20216;-86
2023/08/23 06:13:13;;;;;;;14.93;8.63;;;20.30;49.60;;;;;;5054227;28;20173;-87
2023/08/23 06:15:38;;;;;;;13.77;9.40;;;20.60;43.50;;;;;;5053739;28;20218;-85
2023/08/23 06:18:04;;;;;;;18.43;10.10;;;20.60;39.10;;;;;;5054787;28;20645;-87
2023/08/23 06:20:31;;;;;;;13.73;10.07;;;20.70;35.90;;;;;;5053106;28;20252;-85
2023/08/23 06:22:57;;;;;;;15.43;8.20;;;20.90;27.90;;;;;;5054596;28;20609;-83
2023/08/23 06:25:24;;;;;;;18.80;10.07;;;21.10;24.30;;;;;;5055080;28;20286;-87
2023/08/23 06:27:50;;;;;;;13.87;9.07;;;21.20;22.70;;;;;;5053638;28;20174;-86
2023/08/23 06:30:15;;;;;;;16.27;9.87;;;21.30;21.40;;;;;;5053432;28;20173;-84
2023/08/23 06:32:50;;;;;;;18.33;10.13;;;21.50;20.80;;;;;;5050971;28;20210;-86
2023/08/23 06:35:17;;;;;;;14.60;9.40;;;21.60;16.00;;;;;;5052578;28;20181;-88
2023/08/23 06:37:43;;;;;;;18.43;10.10;;;21.70;12.90;;;;;;5054628;28;20189;-92
2023/08/23 06:40:13;;;;;;;17.00;9.40;;;21.80;10.70;;;;;;5055856;28;20184;-91
2023/08/23 06:42:40;;;;;;;16.87;9.63;;;22.10;3.20;;;;;;5053457;28;20259;-87
2023/08/23 06:45:09;;;;;;;15.70;10.33;;;22.10;1.00;;;;;;5037779;28;20548;-86
2023/08/23 06:47:38;;;;;;;16.33;10.13;;;22.30;1.00;;;;;;5034693;28;20181;-90
2023/08/23 06:50:05;;;;;;;18.80;9.57;;;22.30;1.00;;;;;;5046453;28;20258;-90
2023/08/23 06:52:30;;;;;;;18.87;8.83;;;22.40;1.00;;;;;;5054070;28;20220;-89
2023/08/23 06:54:56;;;;;;;15.13;9.33;;;22.50;1.00;;;;;;5054280;28;20177;-90
2023/08/23 06:57:28;;;;;;;14.17;9.53;;;22.60;1.00;;;;;;5054499;28;20224;-90
2023/08/23 06:59:56;;;;;;;16.97;9.63;;;22.70;1.00;;;;;;5053384;28;20654;-89
2023/08/23 07:02:22;;;;;;;15.53;8.70;;;22.80;1.00;;;;;;5053835;28;20177;-90
2023/08/23 07:04:48;;;;;;;12.80;8.53;;;22.80;1.00;;;;;;5054930;28;20218;-89
2023/08/23 07:07:14;;;;;;;10.17;5.43;;;22.80;1.00;;;;;;5051568;28;20246;-88
2023/08/23 07:09:40;;;;;;;9.80;5.87;;;22.50;1.00;;;;;;5050004;28;20278;-88
2023/08/23 07:12:06;;;;;;;10.70;6.20;;;22.40;1.00;;;;;;5051415;28;20216;-88
2023/08/23 07:14:31;;;;;;;16.77;6.10;;;22.50;1.00;;;;;;5053918;28;20186;-87
2023/08/23 07:16:57;;;;;;;8.73;5.53;;;22.40;1.00;;;;;;5053928;28;20318;-87
2023/08/23 07:19:23;;;;;;;8.83;5.30;;;22.50;1.00;;;;;;5059056;28;20173;-88
2023/08/23 07:21:49;;;;;;;7.63;4.93;;;22.50;1.00;;;;;;5071090;28;20214;-88
2023/08/23 07:24:14;;;;;;;8.53;4.87;;;22.70;1.00;;;;;;5054038;28;20182;-87
2023/08/23 07:26:40;;;;;;;8.13;5.00;;;22.60;1.00;;;;;;5053551;28;20194;-86
2023/08/23 07:29:06;;;;;;;9.70;4.90;;;22.50;1.00;;;;;;5051621;28;20184;-89
2023/08/23 07:31:32;;;;;;;9.30;5.23;;;22.70;1.00;;;;;;5050258;28;20578;-90
2023/08/23 07:33:58;;;;;;;11.10;4.47;;;22.70;1.00;;;;;;5084869;28;20647;-90
2023/08/23 07:36:24;;;;;;;7.33;4.87;;;22.60;1.00;;;;;;5059152;28;20182;-90
2023/08/23 07:38:50;;;;;;;10.80;4.57;;;22.60;1.00;;;;;;5066967;28;20644;-91
2023/08/23 07:41:16;;;;;;;10.60;5.13;;;22.80;1.00;;;;;;5058057;28;20297;-87
2023/08/23 07:43:42;;;;;;;7.67;4.93;;;22.90;1.00;;;;;;5054062;28;20645;-90
2023/08/23 07:46:09;;;;;;;7.03;4.33;;;23.10;1.00;;;;;;5051682;28;20197;-89
2023/08/23 07:48:36;;;;;;;9.30;4.47;;;23.20;1.00;;;;;;5051572;28;20185;-88
2023/08/23 07:51:07;;;;;;;9.67;5.20;;;23.30;1.00;;;;;;5051546;28;20209;-90
2023/08/23 07:53:38;;;;;;;9.33;5.20;;;23.40;1.00;;;;;;5051716;28;20211;-87
2023/08/23 07:56:05;;;;;;;7.37;5.63;;;23.50;1.00;;;;;;5052285;28;20217;-87
2023/08/23 07:58:30;;;;;;;12.00;5.70;;;23.50;1.00;;;;;;5052992;28;20275;-88
2023/08/23 08:00:59;;;;;;;9.77;5.90;;;23.40;1.00;;;;;;5053900;28;20212;-88
2023/08/23 08:03:28;;;;;;;10.50;5.53;;;23.40;1.00;;;;;;5055471;28;20654;-87
2023/08/23 08:05:55;;;;;;;9.30;4.53;;;23.40;1.00;;;;;;5055844;28;20176;-88
2023/08/23 08:08:20;;;;;;;10.27;5.07;;;23.30;1.00;;;;;;5052928;28;20722;-87
2023/08/23 08:10:49;;;;;;;8.77;4.50;;;23.40;1.00;;;;;;5052385;28;20374;-89
2023/08/23 08:13:18;;;;;;;7.97;5.17;;;23.60;1.00;;;;;;5051366;28;20184;-90
2023/08/23 08:15:47;;;;;;;9.20;4.97;;;23.80;1.00;;;;;;5051923;28;20196;-89
2023/08/23 08:18:13;;;;;;;9.63;5.20;;;23.80;1.00;;;;;;5053089;28;20184;-88
2023/08/23 08:20:40;;;;;;;8.17;4.73;;;23.90;1.00;;;;;;5055566;28;20252;-89
2023/08/23 08:23:06;;;;;;;7.63;4.67;;;24.00;1.00;;;;;;5052049;28;20176;-89
2023/08/23 08:25:32;;;;;;;7.93;4.77;;;23.90;1.00;;;;;;5054175;28;20184;-89
2023/08/23 08:27:58;;;;;;;7.93;4.73;;;23.90;1.00;;;;;;5047134;28;20238;-89
2023/08/23 08:30:23;;;;;;;8.03;5.20;;;24.00;1.00;;;;;;5054304;28;20657;-87
2023/08/23 08:32:53;;;;;;;8.83;4.70;;;24.20;1.00;;;;;;5051924;28;20221;-88
2023/08/23 08:35:20;;;;;;;9.40;4.83;;;24.40;1.00;;;;;;5056881;28;20197;-91
2023/08/23 08:37:46;;;;;;;9.50;5.37;;;24.50;1.00;;;;;;5064411;28;20621;-90
2023/08/23 08:40:12;;;;;;;10.57;4.67;;;24.60;1.00;;;;;;5058200;28;20237;-88
2023/08/23 08:42:38;;;;;;;9.23;6.03;;;24.70;1.00;;;;;;5050856;28;20169;-86
2023/08/23 08:45:08;;;;;;;9.63;5.60;;;24.70;1.00;;;;;;5055096;28;20185;-91
2023/08/23 08:47:33;;;;;;;12.80;7.77;;;24.70;1.00;;;;;;5063122;28;20779;-92
2023/08/23 08:49:59;;;;;;;11.37;5.87;;;24.60;1.00;;;;;;5056455;28;20201;-87
2023/08/23 08:52:28;;;;;;;10.03;5.47;;;24.70;1.00;;;;;;5057436;28;20320;-85
2023/08/23 08:54:57;;;;;;;10.63;5.70;;;24.80;1.00;;;;;;5059637;28;20177;-81
2023/08/23 08:57:24;;;;;;;8.93;5.50;;;24.80;1.00;;;;;;5055405;28;20189;-83
2023/08/23 08:59:51;;;;;;;11.03;5.80;;;24.90;1.00;;;;;;5032836;28;20182;-77
2023/08/23 09:02:18;;;;;;;11.70;5.67;;;24.70;1.00;;;;;;5046154;28;20184;-79
2023/08/23 09:04:47;;;;;;;10.77;5.43;;;24.60;1.00;;;;;;5051845;28;20232;-80
2023/08/23 09:07:14;;;;;;;10.93;5.40;;;24.80;1.00;;;;;;5050979;28;20235;-78
2023/08/23 09:09:42;;;;;;;9.93;5.67;;;24.90;1.00;;;;;;5061638;28;20161;-85
2023/08/23 09:12:08;;;;;;;8.50;5.20;;;24.80;1.00;;;;;;5068061;28;20205;-90
2023/08/23 09:14:33;;;;;;;9.93;5.60;;;24.90;1.00;;;;;;5071902;28;20181;-87
2023/08/23 09:16:59;;;;;;;10.40;4.63;;;25.00;1.00;;;;;;5065612;28;20287;-86
2023/08/23 09:19:25;;;;;;;12.97;5.57;;;24.80;1.00;;;;;;5067920;28;20221;-89
2023/08/23 09:21:50;;;;;;;9.13;4.80;;;24.90;1.00;;;;;;5067537;28;20181;-88
2023/08/23 09:24:21;;;;;;;8.70;5.17;;;24.80;1.00;;;;;;5056369;28;20183;-86
2023/08/23 09:26:47;;;;;;;10.33;4.43;;;24.90;1.00;;;;;;5061664;28;20181;-90
2023/08/23 09:29:13;;;;;;;8.73;5.50;;;24.90;1.00;;;;;;5054326;28;20235;-88
2023/08/23 09:31:39;;;;;;;5.73;3.00;;;25.00;1.00;;;;;;5052698;28;20315;-88
2023/08/23 09:34:15;;;;;;;6.07;3.30;;;25.00;99.90;;;;;;5054990;28;20199;-89
2023/08/23 09:36:42;;;;;;;5.27;3.03;;;25.00;99.90;;;;;;5056985;28;20184;-90
2023/08/23 09:39:11;;;;;;;5.73;3.10;;;24.90;99.90;;;;;;5078349;28;20190;-91
2023/08/23 09:41:44;;;;;;;5.57;2.80;;;24.90;99.90;;;;;;5075974;28;20173;-89
2023/08/23 09:44:10;;;;;;;10.63;2.90;;;24.80;99.90;;;;;;5061401;28;20671;-90
2023/08/23 09:46:40;;;;;;;6.50;2.70;;;24.70;99.90;;;;;;5061858;28;20201;-89
2023/08/23 09:49:07;;;;;;;7.83;2.87;;;24.80;99.90;;;;;;5060443;28;20173;-89
2023/08/23 09:51:37;;;;;;;4.47;2.37;;;24.80;99.90;;;;;;5060292;28;20201;-90
2023/08/23 09:54:12;;;;;;;8.53;3.23;;;24.80;99.90;;;;;;5066065;28;20181;-88
2023/08/23 09:56:42;;;;;;;6.43;3.60;;;24.90;99.90;;;;;;5061482;28;20227;-89
2023/08/23 09:59:09;;;;;;;7.47;2.40;;;25.00;99.90;;;;;;5063442;28;20168;-90
2023/08/23 10:01:36;;;;;;;4.93;2.43;;;25.00;99.90;;;;;;5062357;28;20177;-91
2023/08/23 10:04:03;;;;;;;4.93;2.20;;;25.00;99.90;;;;;;5060026;28;20184;-88
2023/08/23 10:06:30;;;;;;;5.00;2.60;;;25.10;99.90;;;;;;5057984;28;20207;-89
2023/08/23 10:08:56;;;;;;;4.27;2.73;;;25.20;99.90;;;;;;5055257;28;20173;-90
2023/08/23 10:11:24;;;;;;;4.17;2.20;;;25.40;99.90;;;;;;5054278;28;20243;-91
2023/08/23 10:13:54;;;;;;;9.67;2.57;;;25.40;99.90;;;;;;5053920;28;20177;-90
2023/08/23 10:16:22;;;;;;;4.37;2.20;;;25.50;99.90;;;;;;5054025;28;20193;-89
2023/08/23 10:18:49;;;;;;;7.80;2.40;;;25.60;99.90;;;;;;5056215;28;20176;-91
2023/08/23 10:21:19;;;;;;;4.30;2.40;;;25.80;99.90;;;;;;5052039;28;20169;-85
2023/08/23 10:23:45;;;;;;;6.47;3.10;;;25.90;99.90;;;;;;5050222;28;20178;-84
2023/08/23 10:26:21;;;;;;;7.23;3.07;;;26.10;99.90;;;;;;5050463;28;20165;-85
2023/08/23 10:28:52;;;;;;;5.97;3.17;;;26.00;99.90;;;;;;5050288;28;20285;-86
2023/08/23 10:31:28;;;;;;;5.37;3.00;;;25.80;99.90;;;;;;5052088;28;20220;-87
2023/08/23 10:33:57;;;;;;;5.40;2.90;;;25.70;99.90;;;;;;5052538;28;20625;-85
2023/08/23 10:36:27;;;;;;;5.17;2.50;;;25.80;99.90;;;;;;5063802;28;20222;-85
2023/08/23 10:38:55;;;;;;;6.50;2.50;;;26.00;44.60;;;;;;5052175;28;20181;-84
2023/08/23 10:41:25;;;;;;;4.53;2.30;;;26.00;1.00;;;;;;5052521;28;20223;-82
2023/08/23 10:43:52;;;;;;;5.83;1.97;;;26.10;1.00;;;;;;5053757;28;20191;-87
2023/08/23 10:46:19;;;;;;;6.37;2.30;;;26.20;1.00;;;;;;5052838;28;20659;-84
2023/08/23 10:48:46;;;;;;;3.93;2.40;;;26.30;1.00;;;;;;5056290;28;20169;-89
2023/08/23 10:51:17;;;;;;;4.13;2.30;;;26.30;1.00;;;;;;5060043;28;20210;-90
2023/08/23 10:53:44;;;;;;;3.43;1.80;;;26.40;1.00;;;;;;5069232;28;20195;-88
2023/08/23 10:56:11;;;;;;;4.03;2.03;;;26.60;99.90;;;;;;5056376;28;20252;-86
2023/08/23 10:58:37;;;;;;;6.15;2.40;;;26.80;36.90;;;;;;5057801;28;20259;-91
2023/08/23 11:01:04;;;;;;;5.57;2.00;;;26.90;1.00;;;;;;5057534;28;20614;-87
2023/08/23 11:03:32;;;;;;;4.78;2.58;;;26.70;99.90;;;;;;5057268;28;20176;-87
2023/08/23 11:05:58;;;;;;;3.53;2.37;;;26.50;79.60;;;;;;5056445;28;20597;-91
2023/08/23 11:08:24;;;;;;;4.90;1.98;;;26.30;99.90;;;;;;5054262;28;20177;-88
2023/08/23 11:10:51;;;;;;;6.13;2.30;;;26.10;99.90;;;;;;5053940;28;20211;-88
2023/08/23 11:13:17;;;;;;;3.65;2.20;;;26.00;99.90;;;;;;5054664;28;20301;-86
2023/08/23 11:15:43;;;;;;;4.67;2.00;;;26.30;1.00;;;;;;5053460;28;20229;-88
2023/08/23 11:18:14;;;;;;;5.43;2.00;;;26.70;99.90;;;;;;5054868;28;20184;-88
2023/08/23 11:20:41;;;;;;;5.35;2.13;;;26.90;99.90;;;;;;5055599;28;20173;-87
2023/08/23 11:23:07;;;;;;;5.35;2.60;;;27.10;1.00;;;;;;5053641;28;20169;-88
2023/08/23 11:25:32;;;;;;;8.25;2.20;;;27.00;1.00;;;;;;5055561;28;20248;-89
2023/08/23 11:27:58;;;;;;;5.15;1.85;;;26.90;99.90;;;;;;5055420;28;20209;-88
2023/08/23 11:30:27;;;;;;;3.67;1.70;;;26.90;99.90;;;;;;5041724;28;20196;-90
2023/08/23 11:32:56;;;;;;;5.10;1.50;;;26.90;1.00;;;;;;5035239;28;20630;-90
2023/08/23 11:35:23;;;;;;;2.40;1.37;;;27.00;99.90;;;;;;5049309;28;20180;-92
2023/08/23 11:37:52;;;;;;;4.10;1.55;;;27.10;1.00;;;;;;5055903;28;20180;-92
2023/08/23 11:40:18;;;;;;;3.60;1.48;;;27.20;1.00;;;;;;5057297;28;20169;-90
2023/08/23 11:42:46;;;;;;;4.30;1.70;;;27.20;99.90;;;;;;5057863;28;20199;-92
2023/08/23 11:45:12;;;;;;;3.78;1.20;;;27.20;1.00;;;;;;5057347;28;20196;-91
2023/08/23 11:47:39;;;;;;;4.80;1.60;;;27.40;1.00;;;;;;5057522;28;20177;-92
2023/08/23 11:50:09;;;;;;;4.20;1.35;;;27.60;99.90;;;;;;5065965;28;20533;-87
2023/08/23 11:52:35;;;;;;;2.67;1.05;;;27.70;99.90;;;;;;5064602;28;20299;-89
2023/08/23 11:55:04;;;;;;;1.25;1.00;;;27.60;99.90;;;;;;5062084;28;20169;-90
2023/08/23 11:57:37;;;;;;;5.10;1.40;;;27.80;1.00;;;;;;5062630;28;20202;-96
2023/08/23 12:00:07;;;;;;;4.38;1.55;;;27.90;60.00;;;;;;5060868;28;20176;-90
2023/08/23 12:02:33;;;;;;;2.80;1.40;;;28.10;1.00;;;;;;5058906;28;20180;-89
2023/08/23 12:04:59;;;;;;;3.53;1.80;;;28.20;1.00;;;;;;5061101;28;20240;-88
2023/08/23 12:07:24;;;;;;;3.03;1.10;;;28.20;1.00;;;;;;5059140;28;20208;-88
2023/08/23 12:09:50;;;;;;;3.70;1.20;;;28.20;99.90;;;;;;5055947;28;20556;-88
2023/08/23 12:12:16;;;;;;;3.40;1.48;;;28.40;99.90;;;;;;5037567;28;20573;-87
2023/08/23 12:14:42;;;;;;;2.70;1.95;;;28.30;99.90;;;;;;5053886;28;20237;-88
2023/08/23 12:17:08;;;;;;;2.75;1.30;;;28.00;99.90;;;;;;5052249;28;20197;-89
2023/08/23 12:19:38;;;;;;;3.22;1.48;;;27.80;1.00;;;;;;5052746;28;20169;-90
2023/08/23 12:22:06;;;;;;;8.13;4.47;;;27.40;46.10;;;;;;5052608;28;20696;-87
2023/08/23 12:24:32;;;;;;;4.63;1.48;;;27.40;1.00;;;;;;5054160;28;20165;-88
2023/08/23 12:26:59;;;;;;;3.92;1.30;;;27.50;1.00;;;;;;5052362;28;20177;-88
2023/08/23 12:29:25;;;;;;;3.53;1.42;;;27.60;1.00;;;;;;5052750;28;20674;-89
2023/08/23 12:31:51;;;;;;;4.10;1.10;;;27.70;99.90;;;;;;5051678;28;20232;-88
2023/08/23 12:34:17;;;;;;;3.42;1.35;;;27.80;99.90;;;;;;5051553;28;20169;-88
2023/08/23 12:36:42;;;;;;;2.72;1.20;;;28.00;99.90;;;;;;5051744;28;20267;-89
2023/08/23 12:39:08;;;;;;;3.85;1.35;;;28.10;99.90;;;;;;5052526;28;20660;-90
2023/08/23 12:41:34;;;;;;;2.65;1.45;;;28.30;99.90;;;;;;5056572;28;20173;-89
2023/08/23 12:44:01;;;;;;;7.85;3.78;;;28.50;99.90;;;;;;5072424;28;20192;-90